createdAt,value
2023-02-05T00:38:46.059Z,3.00
2023-02-05T01:29:11.393Z,2.70
2023-02-05T01:44:24.933Z,2.70
2023-02-05T01:49:31.861Z,2.60
2023-02-05T01:54:35.886Z,2.90
2023-02-05T01:59:42.827Z,2.60
2023-02-05T02:04:48.001Z,2.80
2023-02-05T02:14:57.350Z,2.70
2023-02-05T02:20:01.129Z,2.60
2023-02-05T02:25:28.491Z,2.70
2023-02-05T02:30:36.354Z,2.80
2023-02-05T02:35:49.613Z,2.80
2023-02-05T02:40:55.223Z,2.80
2023-02-05T02:46:09.537Z,2.80
2023-02-05T02:51:14.073Z,2.80
2023-02-05T02:56:17.708Z,2.70
2023-02-05T03:01:24.123Z,2.90
2023-02-05T03:06:27.054Z,2.80
2023-02-05T03:11:29.895Z,2.90
2023-02-05T03:16:33.902Z,2.90
2023-02-05T03:21:43.732Z,3.00
2023-02-05T03:26:45.951Z,3.00
2023-02-05T03:42:09.241Z,3.00
2023-02-05T03:47:31.930Z,3.10
2023-02-05T03:52:38.394Z,3.10
2023-02-05T03:57:45.150Z,3.00
2023-02-05T04:07:51.003Z,2.80
2023-02-05T04:53:15.579Z,3.10
2023-02-05T04:58:17.631Z,3.20
2023-02-05T05:33:37.407Z,3.20
2023-02-05T05:48:56.224Z,1.70
2023-02-05T05:59:00.355Z,3.20
2023-02-05T06:44:24.438Z,3.30
2023-02-05T06:49:26.596Z,3.40
2023-02-05T07:19:40.916Z,3.50
2023-02-05T07:49:56.079Z,3.70
2023-02-05T08:10:05.711Z,3.90
2023-02-05T08:15:07.971Z,3.70
2023-02-05T08:20:10.622Z,3.90
2023-02-05T08:25:14.580Z,3.90
2023-02-05T08:30:18.548Z,3.20
2023-02-05T09:10:38.248Z,4.00
2023-02-05T09:15:48.684Z,4.30
2023-02-05T09:20:52.021Z,4.30
2023-02-05T09:41:10.421Z,4.30
2023-02-05T09:46:26.137Z,4.40
2023-02-05T09:51:38.456Z,4.60
2023-02-05T09:56:54.180Z,4.70
2023-02-05T10:01:59.616Z,4.70
2023-02-05T10:12:17.295Z,4.80
2023-02-05T10:17:29.577Z,4.50
2023-02-05T10:22:44.023Z,4.70
2023-02-05T10:28:01.180Z,4.80
2023-02-05T10:33:17.485Z,4.80
2023-02-05T10:38:25.224Z,4.70
2023-02-05T10:43:45.556Z,4.70
2023-02-05T10:48:57.360Z,4.40
2023-02-05T10:54:00.834Z,4.40
2023-02-05T10:59:05.155Z,4.50
2023-02-05T11:04:20.037Z,4.70
2023-02-05T11:14:38.411Z,5.10
2023-02-05T11:24:42.579Z,5.20
2023-02-05T11:34:47.638Z,4.90
2023-02-05T11:39:55.318Z,5.20
2023-02-05T11:45:01.060Z,5.30
2023-02-05T11:50:06.013Z,5.30
2023-02-05T11:55:24.488Z,5.30
2023-02-05T12:00:27.096Z,5.40
2023-02-05T12:05:36.128Z,5.40
2023-02-05T12:11:03.608Z,5.50
2023-02-05T12:16:28.069Z,5.60
2023-02-05T12:21:51.939Z,5.60
2023-02-05T12:27:07.345Z,5.70
2023-02-05T12:32:45.617Z,5.40
2023-02-05T12:37:56.998Z,5.30
2023-02-05T12:43:04.916Z,5.30
2023-02-05T12:48:46.006Z,5.40
2023-02-05T12:54:03.496Z,5.60
2023-02-05T12:59:15.852Z,5.60
2023-02-05T13:04:40.623Z,5.60
2023-02-05T13:09:45.796Z,6.20
2023-02-05T13:20:09.083Z,5.40
2023-02-05T13:25:59.468Z,5.40
2023-02-05T13:31:03.610Z,5.60
2023-02-05T13:36:23.657Z,5.20
2023-02-05T13:42:03.577Z,5.40
2023-02-05T13:47:39.647Z,5.50
2023-02-05T13:52:50.288Z,5.20
2023-02-05T13:58:24.372Z,5.10
2023-02-05T14:03:39.333Z,5.40
2023-02-05T14:08:41.769Z,5.30
2023-02-05T14:14:33.315Z,5.40
2023-02-05T14:19:56.187Z,5.30
2023-02-05T14:30:40.294Z,5.10
2023-02-05T14:35:43.963Z,5.10
2023-02-05T14:41:11.867Z,8.40
2023-02-05T14:46:23.017Z,5.20
2023-02-05T14:51:59.310Z,5.20
2023-02-05T14:57:15.894Z,5.10
2023-02-05T15:02:55.643Z,4.90
2023-02-05T15:08:23.483Z,5.10
2023-02-05T15:13:26.600Z,5.10
2023-02-05T15:18:32.252Z,5.00
2023-02-05T15:23:52.537Z,5.00
2023-02-05T15:29:04.849Z,5.10
2023-02-05T15:34:48.062Z,5.20
2023-02-05T15:40:03.664Z,5.20
2023-02-05T15:45:26.026Z,5.10
2023-02-05T15:50:29.270Z,5.10
2023-02-05T15:55:31.545Z,5.20
2023-02-05T16:00:37.715Z,5.20
2023-02-05T16:16:10.705Z,4.90
2023-02-05T16:21:26.191Z,5.00
2023-02-05T16:26:44.375Z,5.00
2023-02-05T16:36:50.666Z,4.80
2023-02-05T16:42:07.923Z,5.00
2023-02-05T16:47:19.139Z,5.00
2023-02-05T16:52:35.726Z,5.00
2023-02-05T16:57:39.792Z,4.90
2023-02-05T17:02:42.332Z,4.90
2023-02-05T17:07:44.333Z,5.00
2023-02-05T17:12:57.917Z,4.80
2023-02-05T17:18:04.825Z,4.80
2023-02-05T17:23:08.377Z,7.90
2023-02-05T17:28:21.543Z,5.10
2023-02-05T17:33:25.811Z,5.00
2023-02-05T17:58:36.983Z,4.90
2023-02-05T18:23:52.545Z,5.10
2023-02-05T18:28:54.742Z,5.10
2023-02-05T18:33:56.506Z,4.90
2023-02-05T18:38:58.630Z,5.00
2023-02-05T18:44:00.365Z,5.10
2023-02-05T18:54:07.899Z,4.80
2023-02-05T18:59:15.542Z,4.90
2023-02-05T19:09:25.243Z,5.00
2023-02-05T19:14:28.831Z,5.10
2023-02-05T19:24:34.434Z,5.10
2023-02-05T19:29:39.733Z,5.00
2023-02-05T19:34:43.314Z,4.90
2023-02-05T19:39:46.451Z,4.80
2023-02-05T19:44:49.676Z,5.00
2023-02-05T19:49:51.535Z,4.90
2023-02-05T19:54:53.802Z,5.00
2023-02-05T20:04:58.045Z,4.80
2023-02-05T20:20:13.925Z,5.00
2023-02-05T20:35:44.533Z,4.80
2023-02-05T20:40:46.356Z,4.60
2023-02-05T20:55:53.018Z,4.60
2023-02-05T21:00:55.357Z,4.70
2023-02-05T21:05:57.817Z,4.60
2023-02-05T21:21:14.560Z,4.70
2023-02-05T21:26:31.549Z,4.80
2023-02-05T21:31:39.416Z,4.70
2023-02-05T21:36:42.127Z,4.60
2023-02-05T21:41:48.237Z,4.70
2023-02-05T21:46:50.028Z,4.60
2023-02-05T22:07:00.271Z,4.50
2023-02-05T22:37:17.950Z,4.80
2023-02-05T23:17:38.100Z,4.60
2023-02-05T23:22:41.018Z,4.80
2023-02-05T23:37:48.082Z,4.70
2023-02-05T23:47:53.790Z,4.60
2023-02-05T23:52:56.374Z,4.80
2023-02-05T23:57:58.211Z,4.80
